sensor_id;sensor_type;location;lat;lon;timestamp;pressure;altitude;pressure_sealevel;temperature
66403;BMP180;53212;52.112;5.144;2022-11-21T00:01:32;100553.80;;;3.10
66403;BMP180;53212;52.112;5.144;2022-11-21T00:03:58;100562.60;;;3.10
66403;BMP180;53212;52.112;5.144;2022-11-21T00:06:24;100566.80;;;3.10
66403;BMP180;53212;52.112;5.144;2022-11-21T00:08:50;100576.60;;;3.14
66403;BMP180;53212;52.112;5.144;2022-11-21T00:11:15;100568.20;;;3.20
66403;BMP180;53212;52.112;5.144;2022-11-21T00:13:41;100559.20;;;3.20
66403;BMP180;53212;52.112;5.144;2022-11-21T00:16:11;100559.20;;;3.20
66403;BMP180;53212;52.112;5.144;2022-11-21T00:18:37;100548.80;;;3.20
66403;BMP180;53212;52.112;5.144;2022-11-21T00:21:17;100545.00;;;3.20
66403;BMP180;53212;52.112;5.144;2022-11-21T00:23:44;100551.20;;;3.20
66403;BMP180;53212;52.112;5.144;2022-11-21T00:26:11;100548.60;;;3.20
66403;BMP180;53212;52.112;5.144;2022-11-21T00:28:37;100553.00;;;3.10
66403;BMP180;53212;52.112;5.144;2022-11-21T00:31:04;100551.00;;;3.00
66403;BMP180;53212;52.112;5.144;2022-11-21T00:33:30;100551.80;;;3.00
66403;BMP180;53212;52.112;5.144;2022-11-21T00:35:56;100553.80;;;3.10
66403;BMP180;53212;52.112;5.144;2022-11-21T00:38:21;100550.20;;;3.18
66403;BMP180;53212;52.112;5.144;2022-11-21T00:40:48;100550.60;;;3.20
66403;BMP180;53212;52.112;5.144;2022-11-21T00:43:14;100551.80;;;3.20
66403;BMP180;53212;52.112;5.144;2022-11-21T00:45:40;100546.60;;;3.20
66403;BMP180;53212;52.112;5.144;2022-11-21T00:48:06;100548.20;;;3.20
66403;BMP180;53212;52.112;5.144;2022-11-21T00:50:31;100547.20;;;3.20
66403;BMP180;53212;52.112;5.144;2022-11-21T00:52:57;100537.20;;;3.20
66403;BMP180;53212;52.112;5.144;2022-11-21T00:55:24;100539.60;;;3.20
66403;BMP180;53212;52.112;5.144;2022-11-21T00:57:50;100540.00;;;3.20
66403;BMP180;53212;52.112;5.144;2022-11-21T01:00:16;100543.40;;;3.20
66403;BMP180;53212;52.112;5.144;2022-11-21T01:02:42;100538.80;;;3.20
66403;BMP180;53212;52.112;5.144;2022-11-21T01:05:08;100536.00;;;3.20
66403;BMP180;53212;52.112;5.144;2022-11-21T01:07:34;100536.20;;;3.20
66403;BMP180;53212;52.112;5.144;2022-11-21T01:09:59;100538.60;;;3.20
66403;BMP180;53212;52.112;5.144;2022-11-21T01:12:25;100540.20;;;3.20
66403;BMP180;53212;52.112;5.144;2022-11-21T01:14:51;100541.40;;;3.20
66403;BMP180;53212;52.112;5.144;2022-11-21T01:17:17;100546.00;;;3.10
66403;BMP180;53212;52.112;5.144;2022-11-21T01:19:43;100546.80;;;3.08
66403;BMP180;53212;52.112;5.144;2022-11-21T01:22:08;100559.00;;;3.00
66403;BMP180;53212;52.112;5.144;2022-11-21T01:24:34;100560.80;;;3.00
66403;BMP180;53212;52.112;5.144;2022-11-21T01:26:59;100556.80;;;3.00
66403;BMP180;53212;52.112;5.144;2022-11-21T01:29:26;100554.00;;;3.10
66403;BMP180;53212;52.112;5.144;2022-11-21T01:31:52;100552.20;;;3.10
66403;BMP180;53212;52.112;5.144;2022-11-21T01:34:17;100544.60;;;3.10
66403;BMP180;53212;52.112;5.144;2022-11-21T01:36:43;100546.00;;;3.08
66403;BMP180;53212;52.112;5.144;2022-11-21T01:39:09;100543.60;;;3.04
66403;BMP180;53212;52.112;5.144;2022-11-21T01:41:42;100543.20;;;3.00
66403;BMP180;53212;52.112;5.144;2022-11-21T01:44:23;100534.00;;;3.00
66403;BMP180;53212;52.112;5.144;2022-11-21T01:46:50;100532.40;;;3.04
66403;BMP180;53212;52.112;5.144;2022-11-21T01:49:19;100527.00;;;3.00
66403;BMP180;53212;52.112;5.144;2022-11-21T01:52:27;100534.80;;;2.90
66403;BMP180;53212;52.112;5.144;2022-11-21T01:54:59;100528.20;;;2.88
66403;BMP180;53212;52.112;5.144;2022-11-21T01:57:31;100525.40;;;2.80
66403;BMP180;53212;52.112;5.144;2022-11-21T02:00:07;100522.60;;;2.80
66403;BMP180;53212;52.112;5.144;2022-11-21T02:02:49;100523.80;;;2.80
66403;BMP180;53212;52.112;5.144;2022-11-21T02:05:20;100523.40;;;2.80
66403;BMP180;53212;52.112;5.144;2022-11-21T02:07:48;100528.60;;;2.84
66403;BMP180;53212;52.112;5.144;2022-11-21T02:10:15;100528.80;;;2.90
66403;BMP180;53212;52.112;5.144;2022-11-21T02:12:52;100521.00;;;2.80
66403;BMP180;53212;52.112;5.144;2022-11-21T02:15:22;100532.00;;;2.80
66403;BMP180;53212;52.112;5.144;2022-11-21T02:17:48;100536.80;;;2.80
66403;BMP180;53212;52.112;5.144;2022-11-21T02:20:17;100535.40;;;2.80
66403;BMP180;53212;52.112;5.144;2022-11-21T02:23:15;100527.60;;;2.80
66403;BMP180;53212;52.112;5.144;2022-11-21T02:25:43;100528.80;;;2.80
66403;BMP180;53212;52.112;5.144;2022-11-21T02:28:14;100534.00;;;2.80
66403;BMP180;53212;52.112;5.144;2022-11-21T02:30:42;100529.20;;;2.80
66403;BMP180;53212;52.112;5.144;2022-11-21T02:33:08;100542.00;;;2.70
66403;BMP180;53212;52.112;5.144;2022-11-21T02:35:34;100543.60;;;2.70
66403;BMP180;53212;52.112;5.144;2022-11-21T02:38:10;100543.20;;;2.70
66403;BMP180;53212;52.112;5.144;2022-11-21T02:40:42;100537.80;;;2.70
66403;BMP180;53212;52.112;5.144;2022-11-21T02:43:15;100530.00;;;2.70
66403;BMP180;53212;52.112;5.144;2022-11-21T02:45:44;100523.80;;;2.70
66403;BMP180;53212;52.112;5.144;2022-11-21T02:48:10;100523.60;;;2.70
66403;BMP180;53212;52.112;5.144;2022-11-21T02:50:41;100523.40;;;2.70
66403;BMP180;53212;52.112;5.144;2022-11-21T02:53:11;100520.80;;;2.70
66403;BMP180;53212;52.112;5.144;2022-11-21T02:55:37;100521.40;;;2.70
66403;BMP180;53212;52.112;5.144;2022-11-21T02:58:03;100513.20;;;2.68
66403;BMP180;53212;52.112;5.144;2022-11-21T03:00:29;100522.20;;;2.60
66403;BMP180;53212;52.112;5.144;2022-11-21T03:02:55;100522.00;;;2.70
66403;BMP180;53212;52.112;5.144;2022-11-21T03:05:21;100520.40;;;2.70
66403;BMP180;53212;52.112;5.144;2022-11-21T03:07:47;100517.80;;;2.70
66403;BMP180;53212;52.112;5.144;2022-11-21T03:10:14;100513.40;;;2.70
66403;BMP180;53212;52.112;5.144;2022-11-21T03:12:41;100517.40;;;2.70
66403;BMP180;53212;52.112;5.144;2022-11-21T03:15:11;100510.60;;;2.68
66403;BMP180;53212;52.112;5.144;2022-11-21T03:17:37;100509.80;;;2.62
66403;BMP180;53212;52.112;5.144;2022-11-21T03:20:03;100498.60;;;2.70
66403;BMP180;53212;52.112;5.144;2022-11-21T03:22:29;100491.40;;;2.68
66403;BMP180;53212;52.112;5.144;2022-11-21T03:24:54;100486.20;;;2.60
66403;BMP180;53212;52.112;5.144;2022-11-21T03:27:19;100484.20;;;2.60
66403;BMP180;53212;52.112;5.144;2022-11-21T03:29:45;100482.20;;;2.60
66403;BMP180;53212;52.112;5.144;2022-11-21T03:32:10;100484.00;;;2.60
66403;BMP180;53212;52.112;5.144;2022-11-21T03:34:36;100485.80;;;2.60
66403;BMP180;53212;52.112;5.144;2022-11-21T03:37:02;100488.20;;;2.60
66403;BMP180;53212;52.112;5.144;2022-11-21T03:39:29;100490.20;;;2.60
66403;BMP180;53212;52.112;5.144;2022-11-21T03:41:55;100483.80;;;2.60
66403;BMP180;53212;52.112;5.144;2022-11-21T03:44:20;100489.20;;;2.56
66403;BMP180;53212;52.112;5.144;2022-11-21T03:46:46;100492.80;;;2.50
66403;BMP180;53212;52.112;5.144;2022-11-21T03:49:13;100500.00;;;2.50
66403;BMP180;53212;52.112;5.144;2022-11-21T03:51:40;100496.40;;;2.60
66403;BMP180;53212;52.112;5.144;2022-11-21T03:54:06;100487.20;;;2.60
66403;BMP180;53212;52.112;5.144;2022-11-21T03:56:32;100487.80;;;2.60
66403;BMP180;53212;52.112;5.144;2022-11-21T03:58:57;100493.40;;;2.60
66403;BMP180;53212;52.112;5.144;2022-11-21T04:01:24;100487.60;;;2.64
66403;BMP180;53212;52.112;5.144;2022-11-21T04:03:49;100487.00;;;2.70
66403;BMP180;53212;52.112;5.144;2022-11-21T04:06:18;100479.80;;;2.70
66403;BMP180;53212;52.112;5.144;2022-11-21T04:08:45;100481.60;;;2.70
66403;BMP180;53212;52.112;5.144;2022-11-21T04:11:10;100485.20;;;2.70
66403;BMP180;53212;52.112;5.144;2022-11-21T04:13:36;100483.00;;;2.64
66403;BMP180;53212;52.112;5.144;2022-11-21T04:16:03;100477.80;;;2.60
66403;BMP180;53212;52.112;5.144;2022-11-21T04:18:28;100475.60;;;2.50
66403;BMP180;53212;52.112;5.144;2022-11-21T04:20:59;100468.20;;;2.48
66403;BMP180;53212;52.112;5.144;2022-11-21T04:23:25;100473.20;;;2.48
66403;BMP180;53212;52.112;5.144;2022-11-21T04:25:51;100471.20;;;2.40
66403;BMP180;53212;52.112;5.144;2022-11-21T04:28:17;100470.60;;;2.40
66403;BMP180;53212;52.112;5.144;2022-11-21T04:30:43;100475.60;;;2.40
66403;BMP180;53212;52.112;5.144;2022-11-21T04:33:10;100479.20;;;2.40
66403;BMP180;53212;52.112;5.144;2022-11-21T04:35:36;100473.20;;;2.40
66403;BMP180;53212;52.112;5.144;2022-11-21T04:38:01;100474.60;;;2.40
66403;BMP180;53212;52.112;5.144;2022-11-21T04:40:27;100471.20;;;2.48
66403;BMP180;53212;52.112;5.144;2022-11-21T04:42:52;100478.00;;;2.50
66403;BMP180;53212;52.112;5.144;2022-11-21T04:45:17;100476.20;;;2.60
66403;BMP180;53212;52.112;5.144;2022-11-21T04:47:45;100473.00;;;2.60
66403;BMP180;53212;52.112;5.144;2022-11-21T04:50:13;100464.20;;;2.70
66403;BMP180;53212;52.112;5.144;2022-11-21T04:52:39;100465.00;;;2.70
66403;BMP180;53212;52.112;5.144;2022-11-21T04:55:06;100463.00;;;2.70
66403;BMP180;53212;52.112;5.144;2022-11-21T04:57:32;100458.80;;;2.76
66403;BMP180;53212;52.112;5.144;2022-11-21T04:59:58;100446.20;;;2.80
66403;BMP180;53212;52.112;5.144;2022-11-21T05:02:23;100439.60;;;2.70
66403;BMP180;53212;52.112;5.144;2022-11-21T05:04:49;100440.20;;;2.70
66403;BMP180;53212;52.112;5.144;2022-11-21T05:07:16;100436.60;;;2.70
66403;BMP180;53212;52.112;5.144;2022-11-21T05:09:41;100436.80;;;2.72
66403;BMP180;53212;52.112;5.144;2022-11-21T05:12:10;100435.40;;;2.72
66403;BMP180;53212;52.112;5.144;2022-11-21T05:14:55;100435.00;;;2.70
66403;BMP180;53212;52.112;5.144;2022-11-21T05:17:21;100431.20;;;2.70
66403;BMP180;53212;52.112;5.144;2022-11-21T05:19:46;100428.60;;;2.70
66403;BMP180;53212;52.112;5.144;2022-11-21T05:22:12;100432.60;;;2.70
66403;BMP180;53212;52.112;5.144;2022-11-21T05:24:37;100436.20;;;2.70
66403;BMP180;53212;52.112;5.144;2022-11-21T05:27:03;100434.80;;;2.72
66403;BMP180;53212;52.112;5.144;2022-11-21T05:29:29;100426.40;;;2.78
66403;BMP180;53212;52.112;5.144;2022-11-21T05:31:55;100420.40;;;2.74
66403;BMP180;53212;52.112;5.144;2022-11-21T05:34:20;100415.20;;;2.70
66403;BMP180;53212;52.112;5.144;2022-11-21T05:36:46;100410.60;;;2.70
66403;BMP180;53212;52.112;5.144;2022-11-21T05:39:11;100413.40;;;2.70
66403;BMP180;53212;52.112;5.144;2022-11-21T05:41:37;100404.60;;;2.70
66403;BMP180;53212;52.112;5.144;2022-11-21T05:44:02;100402.00;;;2.70
66403;BMP180;53212;52.112;5.144;2022-11-21T05:46:28;100399.20;;;2.78
66403;BMP180;53212;52.112;5.144;2022-11-21T05:48:54;100395.20;;;2.72
66403;BMP180;53212;52.112;5.144;2022-11-21T05:51:20;100390.40;;;2.70
66403;BMP180;53212;52.112;5.144;2022-11-21T05:53:47;100377.80;;;2.70
66403;BMP180;53212;52.112;5.144;2022-11-21T05:56:18;100382.60;;;2.76
66403;BMP180;53212;52.112;5.144;2022-11-21T05:58:44;100391.40;;;2.80
66403;BMP180;53212;52.112;5.144;2022-11-21T06:01:12;100389.00;;;2.80
66403;BMP180;53212;52.112;5.144;2022-11-21T06:03:40;100385.40;;;2.80
66403;BMP180;53212;52.112;5.144;2022-11-21T06:06:13;100383.20;;;2.80
66403;BMP180;53212;52.112;5.144;2022-11-21T06:08:45;100382.40;;;2.80
66403;BMP180;53212;52.112;5.144;2022-11-21T06:11:15;100377.40;;;2.80
66403;BMP180;53212;52.112;5.144;2022-11-21T06:13:41;100373.60;;;2.80
66403;BMP180;53212;52.112;5.144;2022-11-21T06:16:16;100376.00;;;2.82
66403;BMP180;53212;52.112;5.144;2022-11-21T06:18:47;100378.20;;;2.80
66403;BMP180;53212;52.112;5.144;2022-11-21T06:21:20;100374.00;;;2.90
66403;BMP180;53212;52.112;5.144;2022-11-21T06:23:46;100366.00;;;2.90
66403;BMP180;53212;52.112;5.144;2022-11-21T06:26:18;100366.80;;;2.90
66403;BMP180;53212;52.112;5.144;2022-11-21T06:28:45;100368.00;;;2.94
66403;BMP180;53212;52.112;5.144;2022-11-21T06:31:22;100368.20;;;3.00
66403;BMP180;53212;52.112;5.144;2022-11-21T06:33:58;100365.40;;;2.98
66403;BMP180;53212;52.112;5.144;2022-11-21T06:36:24;100363.20;;;2.90
66403;BMP180;53212;52.112;5.144;2022-11-21T06:38:52;100364.20;;;2.90
66403;BMP180;53212;52.112;5.144;2022-11-21T06:41:24;100366.80;;;2.90
66403;BMP180;53212;52.112;5.144;2022-11-21T06:43:49;100367.40;;;2.98
66403;BMP180;53212;52.112;5.144;2022-11-21T06:46:15;100360.40;;;2.90
66403;BMP180;53212;52.112;5.144;2022-11-21T06:48:42;100355.80;;;2.90
66403;BMP180;53212;52.112;5.144;2022-11-21T06:51:20;100348.20;;;2.90
66403;BMP180;53212;52.112;5.144;2022-11-21T06:53:52;100353.20;;;3.00
66403;BMP180;53212;52.112;5.144;2022-11-21T06:56:20;100345.80;;;2.98
66403;BMP180;53212;52.112;5.144;2022-11-21T06:58:46;100338.60;;;3.00
66403;BMP180;53212;52.112;5.144;2022-11-21T07:01:11;100342.00;;;3.00
66403;BMP180;53212;52.112;5.144;2022-11-21T07:03:38;100340.20;;;3.00
66403;BMP180;53212;52.112;5.144;2022-11-21T07:06:04;100338.00;;;3.00
66403;BMP180;53212;52.112;5.144;2022-11-21T07:08:32;100335.20;;;3.00
66403;BMP180;53212;52.112;5.144;2022-11-21T07:11:10;100336.00;;;3.00
66403;BMP180;53212;52.112;5.144;2022-11-21T07:13:36;100341.00;;;3.00
66403;BMP180;53212;52.112;5.144;2022-11-21T07:16:08;100348.20;;;3.00
66403;BMP180;53212;52.112;5.144;2022-11-21T07:18:34;100341.00;;;3.10
66403;BMP180;53212;52.112;5.144;2022-11-21T07:21:03;100339.80;;;3.10
66403;BMP180;53212;52.112;5.144;2022-11-21T07:23:30;100332.20;;;3.10
66403;BMP180;53212;52.112;5.144;2022-11-21T07:26:04;100322.80;;;3.10
66403;BMP180;53212;52.112;5.144;2022-11-21T07:28:30;100317.80;;;3.20
66403;BMP180;53212;52.112;5.144;2022-11-21T07:30:57;100317.00;;;3.20
66403;BMP180;53212;52.112;5.144;2022-11-21T07:33:23;100316.20;;;3.30
66403;BMP180;53212;52.112;5.144;2022-11-21T07:35:49;100314.00;;;3.30
66403;BMP180;53212;52.112;5.144;2022-11-21T07:38:14;100324.20;;;3.40
66403;BMP180;53212;52.112;5.144;2022-11-21T07:40:39;100326.20;;;3.40
66403;BMP180;53212;52.112;5.144;2022-11-21T07:43:05;100323.60;;;3.40
66403;BMP180;53212;52.112;5.144;2022-11-21T07:45:32;100320.80;;;3.42
66403;BMP180;53212;52.112;5.144;2022-11-21T07:48:04;100325.20;;;3.50
66403;BMP180;53212;52.112;5.144;2022-11-21T07:50:30;100326.40;;;3.50
66403;BMP180;53212;52.112;5.144;2022-11-21T07:52:58;100318.00;;;3.50
66403;BMP180;53212;52.112;5.144;2022-11-21T07:55:24;100323.60;;;3.52
66403;BMP180;53212;52.112;5.144;2022-11-21T07:57:57;100323.80;;;3.58
66403;BMP180;53212;52.112;5.144;2022-11-21T08:00:24;100315.40;;;3.56
66403;BMP180;53212;52.112;5.144;2022-11-21T08:02:50;100313.80;;;3.60
66403;BMP180;53212;52.112;5.144;2022-11-21T08:05:15;100311.20;;;3.60
66403;BMP180;53212;52.112;5.144;2022-11-21T08:07:41;100312.20;;;3.60
66403;BMP180;53212;52.112;5.144;2022-11-21T08:10:06;100303.00;;;3.60
66403;BMP180;53212;52.112;5.144;2022-11-21T08:12:32;100301.00;;;3.70
66403;BMP180;53212;52.112;5.144;2022-11-21T08:14:57;100295.20;;;3.74
66403;BMP180;53212;52.112;5.144;2022-11-21T08:17:25;100295.40;;;3.80
66403;BMP180;53212;52.112;5.144;2022-11-21T08:19:51;100297.60;;;3.80
66403;BMP180;53212;52.112;5.144;2022-11-21T08:22:16;100295.20;;;3.80
66403;BMP180;53212;52.112;5.144;2022-11-21T08:24:42;100291.20;;;3.82
66403;BMP180;53212;52.112;5.144;2022-11-21T08:27:07;100293.40;;;3.90
66403;BMP180;53212;52.112;5.144;2022-11-21T08:29:32;100289.20;;;3.90
66403;BMP180;53212;52.112;5.144;2022-11-21T08:31:58;100283.20;;;4.00
66403;BMP180;53212;52.112;5.144;2022-11-21T08:34:23;100289.80;;;4.00
66403;BMP180;53212;52.112;5.144;2022-11-21T08:36:48;100284.00;;;4.00
66403;BMP180;53212;52.112;5.144;2022-11-21T08:39:14;100280.80;;;4.10
66403;BMP180;53212;52.112;5.144;2022-11-21T08:41:39;100269.00;;;4.10
66403;BMP180;53212;52.112;5.144;2022-11-21T08:44:23;100262.40;;;4.20
66403;BMP180;53212;52.112;5.144;2022-11-21T08:46:49;100254.40;;;4.20
66403;BMP180;53212;52.112;5.144;2022-11-21T08:49:14;100254.00;;;4.20
66403;BMP180;53212;52.112;5.144;2022-11-21T08:51:40;100248.00;;;4.24
66403;BMP180;53212;52.112;5.144;2022-11-21T08:54:05;100245.20;;;4.30
66403;BMP180;53212;52.112;5.144;2022-11-21T08:56:31;100245.20;;;4.40
66403;BMP180;53212;52.112;5.144;2022-11-21T08:58:56;100249.80;;;4.50
66403;BMP180;53212;52.112;5.144;2022-11-21T09:01:22;100249.00;;;4.50
66403;BMP180;53212;52.112;5.144;2022-11-21T09:03:47;100246.00;;;4.60
66403;BMP180;53212;52.112;5.144;2022-11-21T09:06:13;100237.60;;;4.60
66403;BMP180;53212;52.112;5.144;2022-11-21T09:08:39;100236.00;;;4.62
66403;BMP180;53212;52.112;5.144;2022-11-21T09:11:07;100238.40;;;4.70
66403;BMP180;53212;52.112;5.144;2022-11-21T09:13:33;100226.60;;;4.70
66403;BMP180;53212;52.112;5.144;2022-11-21T09:15:59;100225.00;;;4.80
66403;BMP180;53212;52.112;5.144;2022-11-21T09:18:43;100227.00;;;4.80
66403;BMP180;53212;52.112;5.144;2022-11-21T09:21:17;100220.40;;;4.84
66403;BMP180;53212;52.112;5.144;2022-11-21T09:23:43;100217.00;;;4.90
66403;BMP180;53212;52.112;5.144;2022-11-21T09:26:09;100212.20;;;4.90
66403;BMP180;53212;52.112;5.144;2022-11-21T09:28:34;100208.80;;;4.90
66403;BMP180;53212;52.112;5.144;2022-11-21T09:31:02;100208.00;;;5.00
66403;BMP180;53212;52.112;5.144;2022-11-21T09:33:27;100202.60;;;5.02
66403;BMP180;53212;52.112;5.144;2022-11-21T09:35:53;100201.20;;;5.10
66403;BMP180;53212;52.112;5.144;2022-11-21T09:38:18;100190.60;;;5.12
66403;BMP180;53212;52.112;5.144;2022-11-21T09:40:46;100192.60;;;5.28
66403;BMP180;53212;52.112;5.144;2022-11-21T09:43:53;100187.80;;;5.40
66403;BMP180;53212;52.112;5.144;2022-11-21T09:46:27;100200.40;;;5.60
66403;BMP180;53212;52.112;5.144;2022-11-21T09:49:06;100202.00;;;5.70
66403;BMP180;53212;52.112;5.144;2022-11-21T09:51:35;100196.40;;;5.70
66403;BMP180;53212;52.112;5.144;2022-11-21T09:56:38;100188.00;;;5.80
66403;BMP180;53212;52.112;5.144;2022-11-21T10:01:46;100182.00;;;5.88
66403;BMP180;53212;52.112;5.144;2022-11-21T10:04:11;100187.20;;;6.00
66403;BMP180;53212;52.112;5.144;2022-11-21T10:07:03;100177.00;;;6.00
66403;BMP180;53212;52.112;5.144;2022-11-21T10:12:42;100173.40;;;6.20
66403;BMP180;53212;52.112;5.144;2022-11-21T10:15:35;100170.20;;;6.30
66403;BMP180;53212;52.112;5.144;2022-11-21T10:27:06;100154.60;;;6.40
66403;BMP180;53212;52.112;5.144;2022-11-21T10:30:12;100150.20;;;6.40
66403;BMP180;53212;52.112;5.144;2022-11-21T10:32:43;100145.80;;;6.38
66403;BMP180;53212;52.112;5.144;2022-11-21T10:35:19;100145.00;;;6.30
66403;BMP180;53212;52.112;5.144;2022-11-21T10:37:54;100142.00;;;6.40
66403;BMP180;53212;52.112;5.144;2022-11-21T10:40:43;100139.00;;;6.50
66403;BMP180;53212;52.112;5.144;2022-11-21T10:46:07;100131.00;;;6.70
66403;BMP180;53212;52.112;5.144;2022-11-21T10:48:33;100131.60;;;6.80
66403;BMP180;53212;52.112;5.144;2022-11-21T10:51:15;100125.80;;;6.90
66403;BMP180;53212;52.112;5.144;2022-11-21T10:53:42;100126.00;;;7.08
66403;BMP180;53212;52.112;5.144;2022-11-21T10:56:27;100126.40;;;7.10
66403;BMP180;53212;52.112;5.144;2022-11-21T10:58:56;100120.60;;;7.12
66403;BMP180;53212;52.112;5.144;2022-11-21T11:01:27;100112.00;;;7.12
66403;BMP180;53212;52.112;5.144;2022-11-21T11:06:36;100101.40;;;7.30
66403;BMP180;53212;52.112;5.144;2022-11-21T11:09:02;100101.00;;;7.40
66403;BMP180;53212;52.112;5.144;2022-11-21T11:11:28;100100.20;;;7.48
66403;BMP180;53212;52.112;5.144;2022-11-21T11:14:03;100086.60;;;7.50
66403;BMP180;53212;52.112;5.144;2022-11-21T11:16:30;100081.60;;;7.60
66403;BMP180;53212;52.112;5.144;2022-11-21T11:19:14;100078.80;;;7.70
66403;BMP180;53212;52.112;5.144;2022-11-21T11:21:44;100080.20;;;7.80
66403;BMP180;53212;52.112;5.144;2022-11-21T11:29:20;100079.60;;;8.00
66403;BMP180;53212;52.112;5.144;2022-11-21T11:31:58;100076.00;;;8.10
66403;BMP180;53212;52.112;5.144;2022-11-21T11:34:39;100070.40;;;8.10
66403;BMP180;53212;52.112;5.144;2022-11-21T11:37:40;100062.20;;;8.10
66403;BMP180;53212;52.112;5.144;2022-11-21T11:48:56;100032.80;;;8.30
66403;BMP180;53212;52.112;5.144;2022-11-21T11:51:31;100025.20;;;8.30
66403;BMP180;53212;52.112;5.144;2022-11-21T11:54:14;100020.80;;;8.30
66403;BMP180;53212;52.112;5.144;2022-11-21T11:56:42;100019.00;;;8.32
66403;BMP180;53212;52.112;5.144;2022-11-21T11:59:22;100008.00;;;8.40
66403;BMP180;53212;52.112;5.144;2022-11-21T12:01:58;99999.80;;;8.50
66403;BMP180;53212;52.112;5.144;2022-11-21T12:04:28;99992.00;;;8.56
66403;BMP180;53212;52.112;5.144;2022-11-21T12:07:21;99986.20;;;8.60
66403;BMP180;53212;52.112;5.144;2022-11-21T12:23:18;99961.00;;;8.70
66403;BMP180;53212;52.112;5.144;2022-11-21T12:43:44;99912.80;;;8.50
66403;BMP180;53212;52.112;5.144;2022-11-21T12:46:28;99908.80;;;8.40
66403;BMP180;53212;52.112;5.144;2022-11-21T12:55:23;99889.80;;;8.30
66403;BMP180;53212;52.112;5.144;2022-11-21T13:03:41;99871.00;;;8.30
66403;BMP180;53212;52.112;5.144;2022-11-21T13:06:17;99864.60;;;8.32
66403;BMP180;53212;52.112;5.144;2022-11-21T13:08:44;99856.80;;;8.34
66403;BMP180;53212;52.112;5.144;2022-11-21T13:11:43;99853.00;;;8.40
66403;BMP180;53212;52.112;5.144;2022-11-21T13:17:45;99836.20;;;8.40
66403;BMP180;53212;52.112;5.144;2022-11-21T13:20:36;99827.20;;;8.40
66403;BMP180;53212;52.112;5.144;2022-11-21T13:23:05;99824.60;;;8.40
66403;BMP180;53212;52.112;5.144;2022-11-21T13:25:49;99819.00;;;8.40
66403;BMP180;53212;52.112;5.144;2022-11-21T13:30:50;99805.80;;;8.40
66403;BMP180;53212;52.112;5.144;2022-11-21T13:36:10;99800.00;;;8.40
66403;BMP180;53212;52.112;5.144;2022-11-21T13:53:11;99753.40;;;8.10
66403;BMP180;53212;52.112;5.144;2022-11-21T13:56:03;99745.00;;;8.00
66403;BMP180;53212;52.112;5.144;2022-11-21T13:59:01;99740.20;;;8.00
66403;BMP180;53212;52.112;5.144;2022-11-21T14:01:57;99746.00;;;7.90
66403;BMP180;53212;52.112;5.144;2022-11-21T14:07:35;99737.60;;;7.80
66403;BMP180;53212;52.112;5.144;2022-11-21T14:10:37;99732.40;;;7.80
66403;BMP180;53212;52.112;5.144;2022-11-21T14:13:02;99731.80;;;7.76
66403;BMP180;53212;52.112;5.144;2022-11-21T14:15:43;99722.80;;;7.70
66403;BMP180;53212;52.112;5.144;2022-11-21T14:18:22;99729.40;;;7.70
66403;BMP180;53212;52.112;5.144;2022-11-21T14:20:52;99722.00;;;7.66
66403;BMP180;53212;52.112;5.144;2022-11-21T14:23:22;99717.60;;;7.62
66403;BMP180;53212;52.112;5.144;2022-11-21T14:26:01;99711.80;;;7.60
66403;BMP180;53212;52.112;5.144;2022-11-21T14:28:34;99705.40;;;7.60
66403;BMP180;53212;52.112;5.144;2022-11-21T14:31:10;99698.40;;;7.60
66403;BMP180;53212;52.112;5.144;2022-11-21T14:33:38;99699.00;;;7.60
66403;BMP180;53212;52.112;5.144;2022-11-21T14:36:19;99693.60;;;7.60
66403;BMP180;53212;52.112;5.144;2022-11-21T14:38:53;99684.00;;;7.60
66403;BMP180;53212;52.112;5.144;2022-11-21T14:46:22;99679.20;;;7.50
66403;BMP180;53212;52.112;5.144;2022-11-21T14:48:48;99676.80;;;7.50
66403;BMP180;53212;52.112;5.144;2022-11-21T14:51:16;99667.60;;;7.50
66403;BMP180;53212;52.112;5.144;2022-11-21T14:53:43;99663.80;;;7.50
66403;BMP180;53212;52.112;5.144;2022-11-21T14:56:33;99665.00;;;7.50
66403;BMP180;53212;52.112;5.144;2022-11-21T14:59:01;99665.20;;;7.50
66403;BMP180;53212;52.112;5.144;2022-11-21T15:01:31;99659.00;;;7.44
66403;BMP180;53212;52.112;5.144;2022-11-21T15:04:03;99651.40;;;7.40
66403;BMP180;53212;52.112;5.144;2022-11-21T15:06:30;99646.20;;;7.40
66403;BMP180;53212;52.112;5.144;2022-11-21T15:09:04;99645.20;;;7.40
66403;BMP180;53212;52.112;5.144;2022-11-21T15:11:37;99644.60;;;7.38
66403;BMP180;53212;52.112;5.144;2022-11-21T15:14:16;99646.40;;;7.30
66403;BMP180;53212;52.112;5.144;2022-11-21T15:16:47;99645.00;;;7.30
66403;BMP180;53212;52.112;5.144;2022-11-21T15:19:22;99643.80;;;7.30
66403;BMP180;53212;52.112;5.144;2022-11-21T15:21:51;99638.60;;;7.30
66403;BMP180;53212;52.112;5.144;2022-11-21T15:24:39;99628.00;;;7.30
66403;BMP180;53212;52.112;5.144;2022-11-21T15:27:43;99620.80;;;7.30
66403;BMP180;53212;52.112;5.144;2022-11-21T15:33:12;99618.40;;;7.20
66403;BMP180;53212;52.112;5.144;2022-11-21T15:35:41;99610.60;;;7.20
66403;BMP180;53212;52.112;5.144;2022-11-21T15:38:46;99605.00;;;7.20
66403;BMP180;53212;52.112;5.144;2022-11-21T15:48:53;99560.60;;;7.10
66403;BMP180;53212;52.112;5.144;2022-11-21T15:51:29;99551.20;;;7.10
66403;BMP180;53212;52.112;5.144;2022-11-21T15:53:56;99547.80;;;7.04
66403;BMP180;53212;52.112;5.144;2022-11-21T15:56:21;99546.20;;;7.00
66403;BMP180;53212;52.112;5.144;2022-11-21T15:58:47;99544.20;;;7.00
66403;BMP180;53212;52.112;5.144;2022-11-21T16:01:25;99544.00;;;7.00
66403;BMP180;53212;52.112;5.144;2022-11-21T16:03:55;99543.40;;;7.00
66403;BMP180;53212;52.112;5.144;2022-11-21T16:06:21;99545.40;;;6.92
66403;BMP180;53212;52.112;5.144;2022-11-21T16:08:47;99537.20;;;6.90
66403;BMP180;53212;52.112;5.144;2022-11-21T16:11:31;99532.00;;;6.90
66403;BMP180;53212;52.112;5.144;2022-11-21T16:14:00;99535.00;;;6.90
66403;BMP180;53212;52.112;5.144;2022-11-21T16:16:29;99537.20;;;6.90
66403;BMP180;53212;52.112;5.144;2022-11-21T16:18:56;99536.00;;;6.90
66403;BMP180;53212;52.112;5.144;2022-11-21T16:21:22;99539.20;;;6.90
66403;BMP180;53212;52.112;5.144;2022-11-21T16:23:48;99540.80;;;6.90
66403;BMP180;53212;52.112;5.144;2022-11-21T16:26:14;99530.00;;;6.90
66403;BMP180;53212;52.112;5.144;2022-11-21T16:28:39;99529.00;;;6.90
66403;BMP180;53212;52.112;5.144;2022-11-21T16:31:05;99525.40;;;6.90